Time;durP1;ratioP1;P1;durP2;ratioP2;P2;SDS_P1;SDS_P2;PMS_P1;PMS_P2;Temp;Humidity;BMP_temperature;BMP_pressure;BME280_temperature;BME280_humidity;BME280_pressure;Samples;Min_cycle;Max_cycle;Signal;HPM_P1;HPM_P2
2022/05/02 00:00:46;;;;;;;11.77;7.53;;;;;;;;;;5010404;28;20939;-56
2022/05/02 00:03:13;;;;;;;8.23;7.43;;;;;;;;;;4992741;28;20422;-54
2022/05/02 00:05:39;;;;;;;7.90;7.20;;;;;;;;;;5010255;28;20494;-58
2022/05/02 00:08:06;;;;;;;10.00;7.90;;;;;;;;;;4992647;28;20417;-51
2022/05/02 00:10:32;;;;;;;9.00;8.20;;;;;;;;;;5010190;28;20409;-59
2022/05/02 00:12:59;;;;;;;11.43;7.63;;;;;;;;;;4992507;28;20418;-55
2022/05/02 00:15:25;;;;;;;10.03;7.63;;;;;;;;;;5010159;28;20401;-55
2022/05/02 00:17:57;;;;;;;8.60;7.70;;;;;;;;;;5010117;28;20769;-55
2022/05/02 00:20:27;;;;;;;8.47;7.60;;;;;;;;;;5009717;28;20480;-56
2022/05/02 00:22:54;;;;;;;8.97;7.87;;;;;;;;;;5009898;28;20417;-55
2022/05/02 00:25:20;;;;;;;8.57;7.73;;;;;;;;;;5010026;28;20765;-54
2022/05/02 00:27:46;;;;;;;14.23;8.00;;;;;;;;;;4992591;28;20429;-55
2022/05/02 00:30:13;;;;;;;9.47;7.67;;;;;;;;;;5009861;28;20409;-55
2022/05/02 00:32:39;;;;;;;9.53;7.67;;;;;;;;;;5009929;28;20420;-72
2022/05/02 00:35:06;;;;;;;10.13;7.80;;;;;;;;;;5009853;28;20413;-72
2022/05/02 00:37:32;;;;;;;9.30;7.60;;;;;;;;;;5009825;28;20427;-65
2022/05/02 00:39:58;;;;;;;12.07;7.30;;;;;;;;;;5009863;28;20413;-70
2022/05/02 00:42:24;;;;;;;9.17;7.40;;;;;;;;;;5009791;28;20419;-69
2022/05/02 00:44:50;;;;;;;9.50;8.57;;;;;;;;;;5009793;28;20421;-67
2022/05/02 00:47:18;;;;;;;9.13;8.13;;;;;;;;;;5009798;28;20496;-69
2022/05/02 00:49:45;;;;;;;10.30;7.67;;;;;;;;;;5009686;28;20417;-66
2022/05/02 00:52:11;;;;;;;10.60;8.47;;;;;;;;;;5009791;28;20970;-68
2022/05/02 00:54:37;;;;;;;13.10;8.23;;;;;;;;;;5009596;28;20410;-69
2022/05/02 00:57:06;;;;;;;9.00;7.77;;;;;;;;;;5009549;28;20928;-68
2022/05/02 00:59:32;;;;;;;9.30;8.20;;;;;;;;;;5009265;28;20767;-63
2022/05/02 01:01:58;;;;;;;8.70;7.80;;;;;;;;;;5009459;28;21048;-69
2022/05/02 01:04:24;;;;;;;9.37;8.30;;;;;;;;;;4995151;28;20417;-64
2022/05/02 01:07:09;;;;;;;11.07;7.90;;;;;;;;;;5012859;28;20894;-60
2022/05/02 01:09:38;;;;;;;11.67;8.10;;;;;;;;;;4995223;28;20417;-63
2022/05/02 01:12:04;;;;;;;9.10;8.20;;;;;;;;;;5012817;28;20416;-64
2022/05/02 01:14:33;;;;;;;8.50;7.40;;;;;;;;;;5012822;28;20805;-59
2022/05/02 01:16:59;;;;;;;10.50;8.63;;;;;;;;;;5012623;28;20491;-57
2022/05/02 01:19:25;;;;;;;13.37;8.53;;;;;;;;;;4994964;28;20487;-62
2022/05/02 01:21:51;;;;;;;13.47;8.50;;;;;;;;;;5012658;28;20501;-55
2022/05/02 01:24:17;;;;;;;9.13;8.23;;;;;;;;;;5012802;28;20852;-57
2022/05/02 01:26:43;;;;;;;9.97;8.80;;;;;;;;;;5012617;28;20417;-57
2022/05/02 01:29:09;;;;;;;11.40;8.70;;;;;;;;;;5012666;28;20505;-55
2022/05/02 01:31:35;;;;;;;9.83;8.83;;;;;;;;;;5012503;28;20743;-54
2022/05/02 01:34:01;;;;;;;9.67;8.53;;;;;;;;;;5012677;28;20500;-62
2022/05/02 01:36:27;;;;;;;14.63;9.20;;;;;;;;;;4994745;28;20175;-60
2022/05/02 01:38:53;;;;;;;9.30;8.30;;;;;;;;;;5012423;28;20466;-52
2022/05/02 01:41:19;;;;;;;11.33;8.53;;;;;;;;;;4994738;28;20530;-52
2022/05/02 01:43:45;;;;;;;9.57;8.30;;;;;;;;;;5012479;28;20412;-55
2022/05/02 01:46:13;;;;;;;9.13;8.23;;;;;;;;;;5012347;28;20446;-55
2022/05/02 01:48:39;;;;;;;11.93;8.30;;;;;;;;;;5012306;28;20409;-55
2022/05/02 01:51:05;;;;;;;10.00;8.67;;;;;;;;;;5012258;28;20422;-62
2022/05/02 01:53:31;;;;;;;10.30;9.10;;;;;;;;;;5012215;28;20409;-56
2022/05/02 01:55:57;;;;;;;11.20;9.53;;;;;;;;;;5012217;28;20418;-58
2022/05/02 01:58:23;;;;;;;9.90;8.90;;;;;;;;;;4994753;28;20474;-55
2022/05/02 02:00:49;;;;;;;10.17;8.97;;;;;;;;;;5012013;28;20472;-61
2022/05/02 02:03:15;;;;;;;9.90;8.90;;;;;;;;;;5012309;28;20414;-60
2022/05/02 02:05:50;;;;;;;14.97;9.23;;;;;;;;;;5012088;28;20754;-67
2022/05/02 02:08:36;;;;;;;10.93;8.37;;;;;;;;;;5012152;28;20799;-54
2022/05/02 02:11:04;;;;;;;18.30;8.67;;;;;;;;;;5012395;28;20412;-57
2022/05/02 02:13:30;;;;;;;9.27;8.40;;;;;;;;;;5011511;28;20414;-59
2022/05/02 02:15:56;;;;;;;14.77;8.93;;;;;;;;;;5012274;28;20827;-59
2022/05/02 02:18:22;;;;;;;9.50;8.50;;;;;;;;;;5011892;28;20413;-54
2022/05/02 02:20:49;;;;;;;12.70;9.20;;;;;;;;;;5011803;28;20556;-54
2022/05/02 02:23:16;;;;;;;10.50;9.40;;;;;;;;;;5011977;28;20960;-57
2022/05/02 02:25:42;;;;;;;10.10;9.10;;;;;;;;;;5011830;28;20409;-58
2022/05/02 02:28:09;;;;;;;13.60;9.27;;;;;;;;;;4994008;28;20857;-54
2022/05/02 02:30:35;;;;;;;10.30;9.07;;;;;;;;;;5011744;28;20409;-59
2022/05/02 02:33:04;;;;;;;9.50;8.50;;;;;;;;;;5011600;28;20417;-63
2022/05/02 02:35:31;;;;;;;16.10;9.10;;;;;;;;;;5011602;28;20409;-62
2022/05/02 02:37:57;;;;;;;11.07;9.40;;;;;;;;;;5011561;28;20509;-64
2022/05/02 02:40:23;;;;;;;11.60;9.27;;;;;;;;;;5011334;28;20493;-55
2022/05/02 02:42:49;;;;;;;12.00;9.33;;;;;;;;;;5011494;28;20412;-55
2022/05/02 02:45:15;;;;;;;11.47;9.90;;;;;;;;;;4994018;28;20428;-59
2022/05/02 02:47:41;;;;;;;9.53;8.57;;;;;;;;;;5011442;28;20409;-61
2022/05/02 02:50:08;;;;;;;10.33;9.23;;;;;;;;;;5011304;28;20803;-62
2022/05/02 02:52:34;;;;;;;12.87;10.13;;;;;;;;;;5011416;28;20412;-59
2022/05/02 02:55:03;;;;;;;11.20;9.70;;;;;;;;;;5011154;28;20413;-57
2022/05/02 02:57:29;;;;;;;12.83;10.60;;;;;;;;;;5011364;28;20417;-56
2022/05/02 02:59:55;;;;;;;14.03;10.50;;;;;;;;;;5011166;28;20409;-57
2022/05/02 03:02:21;;;;;;;19.33;10.63;;;;;;;;;;4993349;28;20484;-61
2022/05/02 03:07:32;;;;;;;12.03;9.57;;;;;;;;;;5011005;28;20876;-51
2022/05/02 03:09:58;;;;;;;13.73;10.40;;;;;;;;;;5011105;28;20438;-53
2022/05/02 03:12:24;;;;;;;13.83;10.40;;;;;;;;;;4993401;28;20430;-51
2022/05/02 03:14:50;;;;;;;12.80;9.87;;;;;;;;;;4993111;28;20436;-55
2022/05/02 03:17:16;;;;;;;13.70;9.13;;;;;;;;;;5010798;28;20413;-53
2022/05/02 03:19:42;;;;;;;14.47;10.30;;;;;;;;;;5010619;28;20453;-55
2022/05/02 03:22:08;;;;;;;11.23;10.00;;;;;;;;;;4993210;28;20525;-52
2022/05/02 03:24:34;;;;;;;12.47;9.83;;;;;;;;;;5010689;28;20410;-58
2022/05/02 03:27:01;;;;;;;12.83;10.00;;;;;;;;;;5010069;28;20497;-57
2022/05/02 03:29:27;;;;;;;11.60;10.40;;;;;;;;;;5010784;28;20430;-56
2022/05/02 03:31:53;;;;;;;13.03;10.57;;;;;;;;;;5010548;28;20953;-53
2022/05/02 03:34:19;;;;;;;15.40;10.70;;;;;;;;;;4993084;28;20456;-52
2022/05/02 03:36:45;;;;;;;15.23;10.30;;;;;;;;;;5010796;28;20420;-61
2022/05/02 03:39:11;;;;;;;12.47;9.90;;;;;;;;;;5010460;28;20410;-59
2022/05/02 03:41:37;;;;;;;13.00;9.93;;;;;;;;;;5010446;28;20472;-55
2022/05/02 03:44:03;;;;;;;14.80;10.90;;;;;;;;;;5010527;28;20547;-54
2022/05/02 03:46:29;;;;;;;10.90;9.80;;;;;;;;;;5010323;28;20417;-57
2022/05/02 03:48:55;;;;;;;13.47;10.57;;;;;;;;;;4992802;28;20422;-59
2022/05/02 03:51:21;;;;;;;14.30;10.80;;;;;;;;;;5010273;28;20505;-52
2022/05/02 03:53:47;;;;;;;14.07;10.80;;;;;;;;;;5010296;28;20401;-58
2022/05/02 03:56:13;;;;;;;18.83;10.77;;;;;;;;;;4992543;28;20417;-51
2022/05/02 03:58:39;;;;;;;16.40;10.77;;;;;;;;;;5010155;28;20462;-56
2022/05/02 04:01:08;;;;;;;13.90;10.23;;;;;;;;;;5010082;28;20902;-52
2022/05/02 04:03:34;;;;;;;18.87;10.97;;;;;;;;;;5010265;28;20885;-54
2022/05/02 04:06:00;;;;;;;14.60;11.37;;;;;;;;;;5010127;28;20441;-52
2022/05/02 04:08:26;;;;;;;10.33;9.30;;;;;;;;;;5010203;28;20416;-54
2022/05/02 04:10:52;;;;;;;12.30;9.90;;;;;;;;;;5010129;28;20456;-65
2022/05/02 04:13:18;;;;;;;12.53;10.33;;;;;;;;;;4992639;28;20412;-55
2022/05/02 04:15:44;;;;;;;13.53;11.07;;;;;;;;;;5010240;28;20889;-53
2022/05/02 04:18:10;;;;;;;15.53;10.20;;;;;;;;;;5010071;28;20414;-54
2022/05/02 04:20:36;;;;;;;16.60;11.27;;;;;;;;;;5009718;28;20477;-54
2022/05/02 04:23:02;;;;;;;17.17;11.63;;;;;;;;;;5009858;28;20504;-55
2022/05/02 04:25:28;;;;;;;19.90;11.00;;;;;;;;;;4992214;28;20421;-51
2022/05/02 04:27:54;;;;;;;13.47;10.70;;;;;;;;;;5009784;28;20500;-52
2022/05/02 04:30:20;;;;;;;15.60;10.73;;;;;;;;;;5009887;28;20781;-55
2022/05/02 04:32:46;;;;;;;11.37;10.17;;;;;;;;;;4992290;28;20430;-54
2022/05/02 04:35:12;;;;;;;19.40;10.47;;;;;;;;;;5009604;28;20425;-53
2022/05/02 04:37:39;;;;;;;11.67;9.87;;;;;;;;;;5011924;28;20447;-53
2022/05/02 04:40:05;;;;;;;16.57;11.00;;;;;;;;;;5013232;28;20413;-56
2022/05/02 04:42:31;;;;;;;18.67;11.10;;;;;;;;;;4995512;28;20417;-55
2022/05/02 04:44:57;;;;;;;13.20;10.40;;;;;;;;;;5012925;28;20409;-56
2022/05/02 04:47:23;;;;;;;16.17;10.80;;;;;;;;;;4995093;28;20421;-52
2022/05/02 04:49:49;;;;;;;14.87;10.80;;;;;;;;;;5013041;28;20409;-57
2022/05/02 04:52:15;;;;;;;20.03;10.90;;;;;;;;;;5012964;28;20762;-58
2022/05/02 04:54:41;;;;;;;15.60;12.17;;;;;;;;;;4995309;28;20452;-51
2022/05/02 04:57:07;;;;;;;20.80;12.20;;;;;;;;;;5012946;28;20846;-51
2022/05/02 04:59:36;;;;;;;12.87;10.57;;;;;;;;;;5012773;28;20774;-51
2022/05/02 05:02:02;;;;;;;13.40;10.67;;;;;;;;;;5012649;28;20469;-51
2022/05/02 05:04:28;;;;;;;13.63;10.03;;;;;;;;;;5012970;28;20441;-52
2022/05/02 05:06:54;;;;;;;16.20;11.00;;;;;;;;;;4995045;28;20437;-50
2022/05/02 05:09:20;;;;;;;16.97;10.53;;;;;;;;;;5012535;28;20409;-51
2022/05/02 05:11:51;;;;;;;20.03;11.00;;;;;;;;;;5012469;28;20933;-52
2022/05/02 05:17:34;;;;;;;20.93;11.30;;;;;;;;;;4979678;28;20770;-59
2022/05/02 05:20:00;;;;;;;13.03;10.57;;;;;;;;;;5012248;28;20464;-58
2022/05/02 05:22:35;;;;;;;11.20;10.00;;;;;;;;;;5012399;28;20465;-52
2022/05/02 05:25:23;;;;;;;14.20;10.67;;;;;;;;;;5012375;28;20413;-50
2022/05/02 05:28:07;;;;;;;13.33;10.60;;;;;;;;;;5012430;28;20424;-52
2022/05/02 05:30:38;;;;;;;11.53;9.77;;;;;;;;;;5012303;28;20409;-53
2022/05/02 05:33:17;;;;;;;18.87;11.07;;;;;;;;;;5012255;28;20940;-51
2022/05/02 05:35:52;;;;;;;13.73;11.23;;;;;;;;;;5012217;28;20412;-52
2022/05/02 05:38:22;;;;;;;13.87;10.60;;;;;;;;;;5012215;28;20405;-52
2022/05/02 05:40:52;;;;;;;13.60;10.50;;;;;;;;;;5012203;28;20486;-59
2022/05/02 05:43:24;;;;;;;15.77;11.03;;;;;;;;;;5012373;28;20418;-53
2022/05/02 05:46:08;;;;;;;14.73;10.87;;;;;;;;;;5012012;28;20413;-52
2022/05/02 05:48:43;;;;;;;12.17;9.77;;;;;;;;;;4993964;28;20472;-58
2022/05/02 05:51:28;;;;;;;11.57;10.40;;;;;;;;;;5012109;28;20420;-58
2022/05/02 05:54:07;;;;;;;14.23;10.40;;;;;;;;;;4994542;28;20851;-54
2022/05/02 05:56:42;;;;;;;15.67;10.60;;;;;;;;;;5011945;28;20462;-56
2022/05/02 05:59:09;;;;;;;18.60;11.10;;;;;;;;;;5011801;28;20432;-54
2022/05/02 06:01:55;;;;;;;13.60;10.27;;;;;;;;;;4994326;28;20643;-53
2022/05/02 06:04:22;;;;;;;14.23;10.70;;;;;;;;;;5011795;28;20901;-58
2022/05/02 06:06:48;;;;;;;15.50;9.70;;;;;;;;;;5012044;28;20410;-55
2022/05/02 06:09:15;;;;;;;13.53;10.73;;;;;;;;;;4994431;28;20467;-58
2022/05/02 06:11:45;;;;;;;12.73;9.90;;;;;;;;;;5011819;28;20406;-60
2022/05/02 06:14:16;;;;;;;15.30;10.53;;;;;;;;;;5011753;28;20493;-52
2022/05/02 06:19:32;;;;;;;12.20;10.17;;;;;;;;;;5011667;28;20526;-54
2022/05/02 06:22:01;;;;;;;14.50;10.30;;;;;;;;;;5011465;28;20465;-59
2022/05/02 06:24:28;;;;;;;13.93;9.70;;;;;;;;;;5011411;28;20410;-56
2022/05/02 06:26:55;;;;;;;15.47;10.33;;;;;;;;;;5011500;28;20492;-62
2022/05/02 06:29:23;;;;;;;11.33;9.53;;;;;;;;;;5011602;28;20405;-61
2022/05/02 06:31:51;;;;;;;12.30;10.23;;;;;;;;;;5011368;28;20414;-58
2022/05/02 06:34:21;;;;;;;15.30;10.23;;;;;;;;;;5011537;28;20437;-61
2022/05/02 06:36:56;;;;;;;11.43;9.27;;;;;;;;;;5011747;28;20607;-63
2022/05/02 06:39:27;;;;;;;13.03;9.97;;;;;;;;;;5011517;28;20480;-57
2022/05/02 06:42:13;;;;;;;11.27;10.00;;;;;;;;;;4993786;28;20549;-58
2022/05/02 06:44:39;;;;;;;11.50;10.33;;;;;;;;;;5011218;28;20444;-57
2022/05/02 06:47:16;;;;;;;12.10;10.70;;;;;;;;;;5011205;28;20410;-54
2022/05/02 06:49:44;;;;;;;15.23;9.73;;;;;;;;;;5011288;28;20409;-54
2022/05/02 06:52:11;;;;;;;13.10;9.10;;;;;;;;;;5011256;28;20412;-55
2022/05/02 06:54:45;;;;;;;15.83;9.50;;;;;;;;;;5011138;28;20410;-60
2022/05/02 06:57:33;;;;;;;14.17;10.20;;;;;;;;;;5011207;28;20413;-54
2022/05/02 07:00:06;;;;;;;10.57;9.47;;;;;;;;;;5010165;28;20909;-63
2022/05/02 07:02:53;;;;;;;12.17;9.33;;;;;;;;;;5012885;28;20435;-55
2022/05/02 07:05:19;;;;;;;13.87;9.53;;;;;;;;;;5024506;28;20966;-70
2022/05/02 07:07:48;;;;;;;11.47;9.37;;;;;;;;;;5018674;28;20491;-54
2022/05/02 07:10:18;;;;;;;11.50;9.30;;;;;;;;;;5028048;28;20503;-55
2022/05/02 07:12:54;;;;;;;13.63;9.13;;;;;;;;;;5029894;28;20401;-56
2022/05/02 07:15:26;;;;;;;11.70;8.90;;;;;;;;;;4999104;28;20466;-53
2022/05/02 07:17:58;;;;;;;11.60;9.27;;;;;;;;;;4993002;28;20550;-56
2022/05/02 07:20:24;;;;;;;9.77;8.60;;;;;;;;;;5029471;28;20483;-59
2022/05/02 07:22:57;;;;;;;10.50;9.03;;;;;;;;;;5025436;28;20426;-56
2022/05/02 07:25:25;;;;;;;13.17;9.00;;;;;;;;;;5009492;28;20636;-59
2022/05/02 07:28:00;;;;;;;9.93;8.70;;;;;;;;;;5010388;28;20767;-59
2022/05/02 07:30:26;;;;;;;12.03;9.60;;;;;;;;;;5010530;28;20420;-64
2022/05/02 07:32:55;;;;;;;14.23;9.80;;;;;;;;;;5010212;28;20410;-55
2022/05/02 07:35:22;;;;;;;10.17;9.17;;;;;;;;;;5010275;28;20405;-55
2022/05/02 07:37:48;;;;;;;15.73;9.40;;;;;;;;;;5010618;28;20425;-64
2022/05/02 07:40:19;;;;;;;9.33;8.53;;;;;;;;;;5010446;28;20579;-64
2022/05/02 07:42:45;;;;;;;13.33;9.63;;;;;;;;;;5010852;28;20509;-58
2022/05/02 07:45:13;;;;;;;14.57;9.97;;;;;;;;;;5010452;28;20405;-58
2022/05/02 07:47:41;;;;;;;12.27;9.27;;;;;;;;;;5010511;28;20783;-55
2022/05/02 07:50:07;;;;;;;14.80;8.93;;;;;;;;;;5010373;28;20484;-58
2022/05/02 07:52:36;;;;;;;11.93;9.23;;;;;;;;;;5010375;28;20486;-51
2022/05/02 07:55:03;;;;;;;11.90;10.10;;;;;;;;;;5010252;28;20413;-53
2022/05/02 07:57:32;;;;;;;11.90;10.13;;;;;;;;;;5009570;28;20526;-57
2022/05/02 08:00:03;;;;;;;10.53;8.60;;;;;;;;;;5008550;28;20397;-56
2022/05/02 08:02:30;;;;;;;10.50;9.27;;;;;;;;;;5009924;28;20469;-54
2022/05/02 08:04:57;;;;;;;9.80;8.80;;;;;;;;;;5010000;28;20410;-58
2022/05/02 08:07:29;;;;;;;11.30;9.10;;;;;;;;;;5009120;28;20412;-53
2022/05/02 08:10:14;;;;;;;12.20;8.40;;;;;;;;;;5008927;28;20421;-56
2022/05/02 08:12:41;;;;;;;15.50;9.73;;;;;;;;;;5009749;28;20932;-62
2022/05/02 08:15:17;;;;;;;15.73;8.77;;;;;;;;;;5009900;28;20406;-55
2022/05/02 08:18:01;;;;;;;10.10;8.13;;;;;;;;;;5009909;28;20504;-54
2022/05/02 08:20:47;;;;;;;9.90;8.50;;;;;;;;;;5009705;28;20782;-55
2022/05/02 08:29:30;;;;;;;15.20;8.30;;;;;;;;;;5010002;28;20405;-57
2022/05/02 08:31:56;;;;;;;10.67;8.63;;;;;;;;;;5009792;28;20424;-52
2022/05/02 08:34:36;;;;;;;9.67;8.77;;;;;;;;;;5009883;28;20405;-63
2022/05/02 08:37:02;;;;;;;8.77;7.87;;;;;;;;;;5009818;28;20450;-54
2022/05/02 08:39:37;;;;;;;18.23;8.93;;;;;;;;;;5009625;28;20789;-57
2022/05/02 08:42:39;;;;;;;11.70;8.67;;;;;;;;;;5009590;28;20475;-58
2022/05/02 08:45:05;;;;;;;9.07;8.27;;;;;;;;;;5010474;28;20428;-53
2022/05/02 08:47:31;;;;;;;9.40;8.50;;;;;;;;;;5009678;28;20413;-55
2022/05/02 08:50:06;;;;;;;12.67;8.57;;;;;;;;;;5009471;28;20785;-54
2022/05/02 08:52:59;;;;;;;10.37;8.30;;;;;;;;;;5009543;28;20415;-60
2022/05/02 08:55:43;;;;;;;11.30;8.60;;;;;;;;;;5009581;28;20421;-62
2022/05/02 08:58:12;;;;;;;10.37;8.80;;;;;;;;;;4992010;28;20417;-61
2022/05/02 09:00:46;;;;;;;11.20;8.67;;;;;;;;;;5009335;28;20468;-57
2022/05/02 09:03:33;;;;;;;13.77;8.20;;;;;;;;;;5009281;28;20502;-55
2022/05/02 09:06:18;;;;;;;10.80;8.40;;;;;;;;;;5009559;28;20754;-58
2022/05/02 09:09:03;;;;;;;13.23;9.40;;;;;;;;;;4992123;28;20820;-56
2022/05/02 09:11:33;;;;;;;12.07;9.30;;;;;;;;;;5009231;28;20507;-54
2022/05/02 09:14:17;;;;;;;9.93;8.30;;;;;;;;;;5009374;28;20757;-55
2022/05/02 09:16:55;;;;;;;13.57;8.23;;;;;;;;;;5009112;28;20522;-52
2022/05/02 09:19:24;;;;;;;10.80;8.83;;;;;;;;;;5008941;28;20425;-58
2022/05/02 09:22:08;;;;;;;9.47;8.50;;;;;;;;;;5009474;28;20510;-57
2022/05/02 09:24:51;;;;;;;8.93;8.10;;;;;;;;;;5010964;28;20401;-56
2022/05/02 09:27:21;;;;;;;9.17;8.17;;;;;;;;;;5012750;28;20451;-54
2022/05/02 09:30:04;;;;;;;9.00;8.20;;;;;;;;;;5012439;28;20397;-56
2022/05/02 09:32:49;;;;;;;11.00;9.00;;;;;;;;;;5012397;28;20495;-53
2022/05/02 09:35:18;;;;;;;9.97;8.97;;;;;;;;;;5012471;28;20410;-56
2022/05/02 09:37:57;;;;;;;14.37;8.43;;;;;;;;;;5012584;28;20424;-54
2022/05/02 09:40:29;;;;;;;14.73;8.43;;;;;;;;;;5012183;28;20489;-52
2022/05/02 09:43:05;;;;;;;10.93;8.53;;;;;;;;;;4994626;28;20425;-70
2022/05/02 09:51:46;;;;;;;12.63;8.37;;;;;;;;;;5012012;28;20421;-63
2022/05/02 09:57:22;;;;;;;10.67;8.70;;;;;;;;;;5012238;28;20455;-59
2022/05/02 09:59:49;;;;;;;11.00;8.07;;;;;;;;;;5012288;28;20410;-55
2022/05/02 10:02:22;;;;;;;20.93;9.27;;;;;;;;;;5012095;28;20972;-55
2022/05/02 10:04:59;;;;;;;20.73;8.17;;;;;;;;;;5012147;28;20440;-54
2022/05/02 10:07:25;;;;;;;11.00;8.33;;;;;;;;;;4994306;28;20815;-54
2022/05/02 10:10:10;;;;;;;17.03;9.20;;;;;;;;;;4994269;28;20955;-54
2022/05/02 10:12:39;;;;;;;11.30;9.40;;;;;;;;;;5011843;28;20410;-58
2022/05/02 10:15:28;;;;;;;14.40;8.67;;;;;;;;;;5011744;28;20501;-58
2022/05/02 10:18:21;;;;;;;9.83;8.83;;;;;;;;;;4994166;28;20457;-59
2022/05/02 10:21:06;;;;;;;9.63;8.60;;;;;;;;;;5011462;28;20469;-52
2022/05/02 10:23:35;;;;;;;12.43;8.57;;;;;;;;;;5011605;28;20422;-54
2022/05/02 10:26:06;;;;;;;11.40;8.47;;;;;;;;;;5011588;28;20402;-53
2022/05/02 10:28:51;;;;;;;9.37;8.40;;;;;;;;;;5011719;28;20822;-53
2022/05/02 10:31:19;;;;;;;10.87;8.73;;;;;;;;;;5011622;28;20424;-54
2022/05/02 10:33:46;;;;;;;9.30;8.10;;;;;;;;;;5011684;28;20434;-58
2022/05/02 10:36:12;;;;;;;9.83;8.47;;;;;;;;;;5011190;28;20417;-54
2022/05/02 10:38:52;;;;;;;13.57;7.70;;;;;;;;;;5011573;28;21415;-54
2022/05/02 10:41:37;;;;;;;9.97;8.80;;;;;;;;;;5011415;28;20517;-58
2022/05/02 10:44:04;;;;;;;9.50;8.47;;;;;;;;;;5011148;28;20798;-52
2022/05/02 10:46:31;;;;;;;9.50;7.50;;;;;;;;;;4993867;28;20413;-56
2022/05/02 10:49:00;;;;;;;8.77;7.87;;;;;;;;;;4993684;28;20439;-55
2022/05/02 10:51:26;;;;;;;11.57;9.10;;;;;;;;;;5011139;28;20413;-54
2022/05/02 10:54:26;;;;;;;12.13;8.57;;;;;;;;;;5011145;28;20402;-55
2022/05/02 10:56:58;;;;;;;12.10;8.60;;;;;;;;;;5021964;28;20800;-52
2022/05/02 10:59:30;;;;;;;11.60;9.07;;;;;;;;;;5010984;28;20418;-56
2022/05/02 11:02:02;;;;;;;9.80;8.67;;;;;;;;;;5011027;28;20997;-54
2022/05/02 11:04:43;;;;;;;10.23;8.20;;;;;;;;;;5010968;28;20405;-54
2022/05/02 11:07:30;;;;;;;12.80;8.03;;;;;;;;;;5011058;28;20424;-54
2022/05/02 11:09:56;;;;;;;10.40;8.17;;;;;;;;;;5010809;28;20472;-51
2022/05/02 11:12:23;;;;;;;9.00;8.10;;;;;;;;;;5010861;28;20496;-52
2022/05/02 11:14:59;;;;;;;11.03;8.50;;;;;;;;;;5010841;28;20402;-53
2022/05/02 11:17:28;;;;;;;10.97;8.93;;;;;;;;;;5010884;28;20456;-53
2022/05/02 11:22:48;;;;;;;10.20;7.90;;;;;;;;;;5011114;28;20424;-59
2022/05/02 11:25:22;;;;;;;11.53;8.40;;;;;;;;;;5010711;28;20410;-55
2022/05/02 11:27:59;;;;;;;10.90;8.60;;;;;;;;;;5010773;28;20428;-56
2022/05/02 11:30:29;;;;;;;9.90;8.53;;;;;;;;;;5010537;28;20416;-54
2022/05/02 11:33:02;;;;;;;10.23;9.03;;;;;;;;;;4993046;28;20978;-53
2022/05/02 11:35:29;;;;;;;12.00;9.40;;;;;;;;;;5010591;28;20487;-55
2022/05/02 11:38:03;;;;;;;10.60;8.70;;;;;;;;;;5010580;28;20417;-52
2022/05/02 11:40:33;;;;;;;17.43;9.20;;;;;;;;;;5010446;28;20409;-54
2022/05/02 11:42:59;;;;;;;13.60;9.80;;;;;;;;;;5010536;28;20541;-57
2022/05/02 11:45:43;;;;;;;9.80;8.90;;;;;;;;;;5010270;28;20401;-53
2022/05/02 11:48:12;;;;;;;11.10;8.77;;;;;;;;;;5009878;28;20417;-56
2022/05/02 11:50:46;;;;;;;12.70;9.60;;;;;;;;;;5010362;28;20446;-55
2022/05/02 11:53:14;;;;;;;9.53;8.50;;;;;;;;;;5007557;28;20464;-53
2022/05/02 11:55:40;;;;;;;15.67;8.87;;;;;;;;;;5010209;28;20437;-57
2022/05/02 11:58:11;;;;;;;12.50;8.90;;;;;;;;;;5010165;28;20913;-53
2022/05/02 12:00:38;;;;;;;12.57;9.20;;;;;;;;;;5010123;28;20420;-52
2022/05/02 12:03:17;;;;;;;9.13;8.30;;;;;;;;;;5010019;28;20905;-54
2022/05/02 12:05:46;;;;;;;10.93;8.53;;;;;;;;;;5010259;28;20458;-55
2022/05/02 12:08:31;;;;;;;10.10;8.90;;;;;;;;;;4992415;28;20410;-54
2022/05/02 12:11:03;;;;;;;18.00;8.90;;;;;;;;;;5009987;28;20424;-54
2022/05/02 12:13:44;;;;;;;10.63;8.43;;;;;;;;;;5010126;28;20421;-58
2022/05/02 12:16:11;;;;;;;10.37;8.50;;;;;;;;;;5009887;28;20491;-54
2022/05/02 12:18:40;;;;;;;10.73;9.07;;;;;;;;;;4992380;28;20539;-54
2022/05/02 12:21:08;;;;;;;9.87;8.10;;;;;;;;;;5009679;28;20477;-53
2022/05/02 12:23:37;;;;;;;10.03;8.10;;;;;;;;;;5010008;28;20421;-55
2022/05/02 12:26:04;;;;;;;9.77;7.90;;;;;;;;;;5009949;28;20433;-55
2022/05/02 12:28:41;;;;;;;12.13;7.80;;;;;;;;;;5009861;28;20414;-53
2022/05/02 12:31:08;;;;;;;8.57;7.40;;;;;;;;;;5009714;28;20474;-57
2022/05/02 12:33:39;;;;;;;8.93;7.20;;;;;;;;;;5009866;28;20417;-59
2022/05/02 12:36:10;;;;;;;9.40;7.80;;;;;;;;;;5009790;28;20482;-54
2022/05/02 12:38:40;;;;;;;10.00;7.03;;;;;;;;;;5009679;28;20853;-56
2022/05/02 12:41:07;;;;;;;11.83;7.47;;;;;;;;;;4991894;28;20506;-66
2022/05/02 12:43:42;;;;;;;9.70;7.97;;;;;;;;;;5009566;28;20504;-54
2022/05/02 12:46:10;;;;;;;10.67;7.93;;;;;;;;;;5009840;28;20417;-61
2022/05/02 12:48:38;;;;;;;8.03;7.23;;;;;;;;;;5009736;28;20445;-56
2022/05/02 12:51:07;;;;;;;8.90;7.73;;;;;;;;;;5009637;28;20436;-56
2022/05/02 12:56:18;;;;;;;9.00;7.90;;;;;;;;;;5009799;28;20400;-56
2022/05/02 13:02:00;;;;;;;14.00;8.00;;;;;;;;;;5012909;28;20464;-56
2022/05/02 13:04:28;;;;;;;11.37;7.60;;;;;;;;;;5012519;28;20528;-55
2022/05/02 13:06:58;;;;;;;12.37;8.20;;;;;;;;;;5012978;28;20414;-56
2022/05/02 13:09:35;;;;;;;11.50;7.10;;;;;;;;;;5012657;28;20401;-53
2022/05/02 13:12:08;;;;;;;8.77;7.93;;;;;;;;;;5012739;28;20413;-55
2022/05/02 13:14:34;;;;;;;8.70;7.90;;;;;;;;;;5012753;28;20404;-54
2022/05/02 13:17:00;;;;;;;7.97;6.80;;;;;;;;;;5012728;28;20420;-56
2022/05/02 13:19:37;;;;;;;13.67;8.70;;;;;;;;;;5012675;28;20397;-56
2022/05/02 13:22:04;;;;;;;9.27;7.33;;;;;;;;;;4995072;28;20480;-56
2022/05/02 13:24:31;;;;;;;8.50;7.07;;;;;;;;;;5012601;28;20413;-55
2022/05/02 13:27:07;;;;;;;9.83;7.80;;;;;;;;;;5012611;28;20503;-57
2022/05/02 13:29:36;;;;;;;7.33;6.80;;;;;;;;;;4994945;28;20412;-55
2022/05/02 13:32:02;;;;;;;7.60;6.87;;;;;;;;;;5012579;28;20409;-55
2022/05/02 13:34:36;;;;;;;10.70;7.67;;;;;;;;;;5012550;28;20413;-57
2022/05/02 13:37:26;;;;;;;8.07;6.87;;;;;;;;;;5012368;28;20413;-54
2022/05/02 13:39:57;;;;;;;8.73;6.70;;;;;;;;;;5012464;28;20401;-53
2022/05/02 13:42:23;;;;;;;13.20;7.50;;;;;;;;;;5012083;28;20476;-54
2022/05/02 13:44:58;;;;;;;8.43;7.53;;;;;;;;;;5012455;28;20474;-53
2022/05/02 13:47:29;;;;;;;8.93;8.03;;;;;;;;;;5012100;28;20170;-52
2022/05/02 13:50:01;;;;;;;8.80;7.70;;;;;;;;;;4994722;28;21000;-57
2022/05/02 13:52:37;;;;;;;7.10;6.50;;;;;;;;;;5012254;28;20416;-54
2022/05/02 13:55:13;;;;;;;11.93;6.30;;;;;;;;;;5012091;28;20405;-56
2022/05/02 13:57:47;;;;;;;8.33;6.50;;;;;;;;;;5012069;28;20480;-54
2022/05/02 14:03:05;;;;;;;10.80;5.87;;;;;;;;;;5012537;28;20436;-57
2022/05/02 14:05:54;;;;;;;8.10;5.93;;;;;;;;;;4994549;28;20551;-55
2022/05/02 14:08:39;;;;;;;9.90;6.00;;;;;;;;;;5012041;28;20412;-54
2022/05/02 14:11:05;;;;;;;8.13;6.23;;;;;;;;;;5011159;28;20401;-54
2022/05/02 14:13:31;;;;;;;8.83;5.83;;;;;;;;;;5011940;28;20413;-54
2022/05/02 14:16:04;;;;;;;7.00;5.80;;;;;;;;;;5011805;28;20416;-55
2022/05/02 14:18:46;;;;;;;9.03;6.17;;;;;;;;;;5011703;28;20936;-55
2022/05/02 14:21:12;;;;;;;13.07;5.77;;;;;;;;;;5011321;28;20545;-60
2022/05/02 14:23:47;;;;;;;8.10;6.40;;;;;;;;;;5011550;28;20904;-55
2022/05/02 14:26:14;;;;;;;6.97;6.33;;;;;;;;;;5011772;28;20178;-56
2022/05/02 14:28:49;;;;;;;6.53;6.10;;;;;;;;;;4993942;28;20409;-53
2022/05/02 14:31:16;;;;;;;7.80;7.00;;;;;;;;;;5011510;28;20416;-54
2022/05/02 14:33:42;;;;;;;10.47;6.43;;;;;;;;;;4994020;28;20775;-53
2022/05/02 14:36:10;;;;;;;7.40;6.17;;;;;;;;;;5011606;28;20419;-54
2022/05/02 14:38:36;;;;;;;10.57;5.60;;;;;;;;;;5011433;28;20405;-53
2022/05/02 14:41:02;;;;;;;8.13;5.33;;;;;;;;;;5011307;28;20491;-52
2022/05/02 14:43:29;;;;;;;6.83;5.87;;;;;;;;;;5011134;28;20421;-54
2022/05/02 14:45:55;;;;;;;5.83;5.43;;;;;;;;;;5011510;28;20400;-54
2022/05/02 14:48:22;;;;;;;6.07;5.57;;;;;;;;;;5011397;28;20413;-53
2022/05/02 14:50:52;;;;;;;9.90;5.50;;;;;;;;;;5011498;28;20421;-54
2022/05/02 14:53:20;;;;;;;7.27;5.70;;;;;;;;;;5011368;28;20402;-56
2022/05/02 14:55:56;;;;;;;6.10;5.50;;;;;;;;;;5011606;28;20792;-53
2022/05/02 14:58:23;;;;;;;9.90;6.30;;;;;;;;;;5020233;28;20405;-54
2022/05/02 15:00:50;;;;;;;6.40;5.80;;;;;;;;;;5003092;28;20447;-53
2022/05/02 15:03:16;;;;;;;6.57;5.77;;;;;;;;;;5030284;28;20840;-52
2022/05/02 15:05:44;;;;;;;8.20;5.80;;;;;;;;;;5015635;28;20405;-55
2022/05/02 15:08:33;;;;;;;7.93;5.70;;;;;;;;;;5010563;28;20826;-59
2022/05/02 15:11:05;;;;;;;10.80;5.75;;;;;;;;;;5010658;28;20245;-54
2022/05/02 15:13:41;;;;;;;5.00;4.60;;;;;;;;;;5018973;28;20177;-54
2022/05/02 15:16:11;;;;;;;8.20;4.57;;;;;;;;;;5025163;28;20181;-55
2022/05/02 15:21:44;;;;;;;5.63;5.13;;;;;;;;;;5028931;28;20235;-58
2022/05/02 15:24:29;;;;;;;6.33;5.83;;;;;;;;;;5012224;28;20557;-55
2022/05/02 15:26:55;;;;;;;7.23;5.30;;;;;;;;;;5029708;28;20204;-55
2022/05/02 15:38:22;;;;;;;8.13;5.37;;;;;;;;;;5010091;28;20212;-59